Kezdőlap
METAR-TAF:

METAR-TAF

Repülőterek :

Dakar, Szenegál

földrajzi szélesség: 14-44N, földrajzi hosszúság: 017-30W, magasság: 27 m

Jelenlegi meteorológiai megfigyelések

A jelentés 55 perccel ezelõtt készült, 18:00 UTC
Észak-északnyugati szél 8 kt
Hőmérséklet 28°C
Páratartalom 89%
Légköri nyomás 1012 hPa
Látótávolság 10 km, vagy több
felhőtlen 1500 m magasságban, és nincs gomolyfelhõ

METAR: GOOY 171800Z 34008KT CAVOK 28/26 Q1012

Idő: 18:55 (18:55 UTC)

Előrejelzés

A jelentés 1 órával és 25 perccel ezelõtt készült, 17:30 UTC
Az előrejelzés 17-én 18 óra UTC és 18-én 24 óra UTC között érvényes
Északi szél 10 kt
Látótávolság 10 km, vagy több
Szórványos felhőzet 1300 lábon

TAF: GOOY 171730Z 1718/1824 36010KT 9999 SCT013

Meteorológiai megfigyelések és előrejelzések több, mint 4000 repülőtéren (METAR és TAF jelentéseket).

A térképen piros és sárga pontok jelzik az elérhető meteorológiai állomásokat.

Mozgassa az egeret a pont fölött, hogy megjelenjen az állomás neve.

Azután kattintson az időjárási megfigyelések és előrejelzések megtekintéséhez.

A térkép megváltoztatása: kattintson a fekete keresztel jelölt zöld gombra ráközelítéshez, a vonallal jelölt zöld gombra távolításhoz, vagy a zöld nyilakra a szomszédos térképek eléréséhez.


METAR-TAF: